sensor_id;sensor_type;location;lat;lon;timestamp;P1;durP1;ratioP1;P2;durP2;ratioP2
5688;SDS011;2869;50.432;8.680;2022-09-27T00:00:44;1.60;;;1.37;;
5688;SDS011;2869;50.432;8.680;2022-09-27T00:03:11;1.70;;;1.60;;
5688;SDS011;2869;50.432;8.680;2022-09-27T00:05:39;1.93;;;1.83;;
5688;SDS011;2869;50.432;8.680;2022-09-27T00:08:06;1.73;;;1.63;;
5688;SDS011;2869;50.432;8.680;2022-09-27T00:10:33;1.70;;;1.60;;
5688;SDS011;2869;50.432;8.680;2022-09-27T00:13:00;3.57;;;1.53;;
5688;SDS011;2869;50.432;8.680;2022-09-27T00:15:26;1.90;;;1.80;;
5688;SDS011;2869;50.432;8.680;2022-09-27T00:17:53;4.00;;;1.50;;
5688;SDS011;2869;50.432;8.680;2022-09-27T00:20:20;2.20;;;1.97;;
5688;SDS011;2869;50.432;8.680;2022-09-27T00:22:48;1.77;;;1.67;;
5688;SDS011;2869;50.432;8.680;2022-09-27T00:25:15;1.50;;;1.40;;
5688;SDS011;2869;50.432;8.680;2022-09-27T00:27:42;1.73;;;1.63;;
5688;SDS011;2869;50.432;8.680;2022-09-27T00:30:09;3.20;;;1.70;;
5688;SDS011;2869;50.432;8.680;2022-09-27T00:32:37;2.40;;;1.87;;
5688;SDS011;2869;50.432;8.680;2022-09-27T00:35:04;5.50;;;1.90;;
5688;SDS011;2869;50.432;8.680;2022-09-27T00:37:31;5.83;;;1.87;;
5688;SDS011;2869;50.432;8.680;2022-09-27T00:39:59;3.50;;;2.03;;
5688;SDS011;2869;50.432;8.680;2022-09-27T00:42:26;3.20;;;2.00;;
5688;SDS011;2869;50.432;8.680;2022-09-27T00:45:06;6.20;;;2.33;;
5688;SDS011;2869;50.432;8.680;2022-09-27T00:47:40;6.77;;;2.67;;
5688;SDS011;2869;50.432;8.680;2022-09-27T00:50:16;9.80;;;2.47;;
5688;SDS011;2869;50.432;8.680;2022-09-27T00:52:54;7.17;;;2.17;;
5688;SDS011;2869;50.432;8.680;2022-09-27T00:55:30;12.03;;;2.93;;
5688;SDS011;2869;50.432;8.680;2022-09-27T00:58:01;7.07;;;2.13;;
5688;SDS011;2869;50.432;8.680;2022-09-27T01:00:29;5.93;;;2.37;;
5688;SDS011;2869;50.432;8.680;2022-09-27T01:02:56;5.00;;;2.60;;
5688;SDS011;2869;50.432;8.680;2022-09-27T01:05:24;8.13;;;2.47;;
5688;SDS011;2869;50.432;8.680;2022-09-27T01:07:53;3.50;;;2.50;;
5688;SDS011;2869;50.432;8.680;2022-09-27T01:10:23;5.80;;;2.47;;
5688;SDS011;2869;50.432;8.680;2022-09-27T01:13:00;7.60;;;2.33;;
5688;SDS011;2869;50.432;8.680;2022-09-27T01:15:33;3.83;;;2.90;;
5688;SDS011;2869;50.432;8.680;2022-09-27T01:18:12;5.10;;;2.80;;
5688;SDS011;2869;50.432;8.680;2022-09-27T01:20:54;7.93;;;2.50;;
5688;SDS011;2869;50.432;8.680;2022-09-27T01:23:51;6.87;;;3.10;;
5688;SDS011;2869;50.432;8.680;2022-09-27T01:26:39;9.50;;;2.70;;
5688;SDS011;2869;50.432;8.680;2022-09-27T01:29:23;6.60;;;2.80;;
5688;SDS011;2869;50.432;8.680;2022-09-27T01:32:04;7.33;;;3.10;;
5688;SDS011;2869;50.432;8.680;2022-09-27T01:34:34;9.03;;;3.30;;
5688;SDS011;2869;50.432;8.680;2022-09-27T01:37:09;9.93;;;2.57;;
5688;SDS011;2869;50.432;8.680;2022-09-27T01:39:47;11.40;;;2.87;;
5688;SDS011;2869;50.432;8.680;2022-09-27T01:42:18;6.93;;;2.70;;
5688;SDS011;2869;50.432;8.680;2022-09-27T01:44:51;12.90;;;4.70;;
5688;SDS011;2869;50.432;8.680;2022-09-27T01:47:22;6.43;;;2.50;;
5688;SDS011;2869;50.432;8.680;2022-09-27T01:49:54;5.80;;;2.90;;
5688;SDS011;2869;50.432;8.680;2022-09-27T01:52:26;9.30;;;2.77;;
5688;SDS011;2869;50.432;8.680;2022-09-27T01:54:58;8.37;;;3.03;;
5688;SDS011;2869;50.432;8.680;2022-09-27T01:57:30;7.83;;;2.80;;
5688;SDS011;2869;50.432;8.680;2022-09-27T02:00:01;5.90;;;3.10;;
5688;SDS011;2869;50.432;8.680;2022-09-27T02:02:32;8.23;;;3.23;;
5688;SDS011;2869;50.432;8.680;2022-09-27T02:05:01;4.23;;;2.73;;
5688;SDS011;2869;50.432;8.680;2022-09-27T02:07:33;5.00;;;2.23;;
5688;SDS011;2869;50.432;8.680;2022-09-27T02:10:05;6.27;;;2.40;;
5688;SDS011;2869;50.432;8.680;2022-09-27T02:12:37;7.70;;;2.40;;
5688;SDS011;2869;50.432;8.680;2022-09-27T02:15:11;3.83;;;2.17;;
5688;SDS011;2869;50.432;8.680;2022-09-27T02:17:42;4.63;;;2.30;;
5688;SDS011;2869;50.432;8.680;2022-09-27T02:20:14;7.40;;;2.70;;
5688;SDS011;2869;50.432;8.680;2022-09-27T02:22:46;3.17;;;2.20;;
5688;SDS011;2869;50.432;8.680;2022-09-27T02:25:17;3.90;;;2.70;;
5688;SDS011;2869;50.432;8.680;2022-09-27T02:27:50;3.40;;;2.70;;
5688;SDS011;2869;50.432;8.680;2022-09-27T02:30:23;3.77;;;2.27;;
5688;SDS011;2869;50.432;8.680;2022-09-27T02:32:51;4.10;;;2.40;;
5688;SDS011;2869;50.432;8.680;2022-09-27T02:35:19;4.47;;;2.60;;
5688;SDS011;2869;50.432;8.680;2022-09-27T02:37:49;2.83;;;2.10;;
5688;SDS011;2869;50.432;8.680;2022-09-27T02:40:17;5.80;;;2.70;;
5688;SDS011;2869;50.432;8.680;2022-09-27T02:42:44;3.53;;;2.23;;
5688;SDS011;2869;50.432;8.680;2022-09-27T02:45:11;3.23;;;2.40;;
5688;SDS011;2869;50.432;8.680;2022-09-27T02:47:58;3.90;;;2.57;;
5688;SDS011;2869;50.432;8.680;2022-09-27T02:50:36;3.13;;;2.03;;
5688;SDS011;2869;50.432;8.680;2022-09-27T02:53:14;4.70;;;2.20;;
5688;SDS011;2869;50.432;8.680;2022-09-27T02:55:54;16.47;;;2.90;;
5688;SDS011;2869;50.432;8.680;2022-09-27T02:58:30;2.30;;;1.80;;
5688;SDS011;2869;50.432;8.680;2022-09-27T03:01:05;3.67;;;2.27;;
5688;SDS011;2869;50.432;8.680;2022-09-27T03:03:41;3.90;;;2.00;;
5688;SDS011;2869;50.432;8.680;2022-09-27T03:06:15;4.80;;;1.90;;
5688;SDS011;2869;50.432;8.680;2022-09-27T03:08:44;3.13;;;2.40;;
5688;SDS011;2869;50.432;8.680;2022-09-27T03:11:11;3.00;;;2.10;;
5688;SDS011;2869;50.432;8.680;2022-09-27T03:13:38;2.43;;;2.23;;
5688;SDS011;2869;50.432;8.680;2022-09-27T03:16:05;2.73;;;2.37;;
5688;SDS011;2869;50.432;8.680;2022-09-27T03:18:33;2.43;;;2.23;;
5688;SDS011;2869;50.432;8.680;2022-09-27T03:21:01;6.80;;;2.33;;
5688;SDS011;2869;50.432;8.680;2022-09-27T03:23:28;4.13;;;2.07;;
5688;SDS011;2869;50.432;8.680;2022-09-27T03:25:54;2.90;;;1.80;;
5688;SDS011;2869;50.432;8.680;2022-09-27T03:28:21;2.47;;;2.27;;
5688;SDS011;2869;50.432;8.680;2022-09-27T03:30:49;4.27;;;2.33;;
5688;SDS011;2869;50.432;8.680;2022-09-27T03:33:16;2.83;;;2.30;;
5688;SDS011;2869;50.432;8.680;2022-09-27T03:35:43;2.33;;;2.23;;
5688;SDS011;2869;50.432;8.680;2022-09-27T03:38:11;2.67;;;2.27;;
5688;SDS011;2869;50.432;8.680;2022-09-27T03:40:38;2.57;;;2.37;;
5688;SDS011;2869;50.432;8.680;2022-09-27T03:43:04;3.83;;;2.40;;
5688;SDS011;2869;50.432;8.680;2022-09-27T03:45:31;3.20;;;2.20;;
5688;SDS011;2869;50.432;8.680;2022-09-27T03:47:58;5.53;;;2.20;;
5688;SDS011;2869;50.432;8.680;2022-09-27T03:50:24;2.20;;;2.00;;
5688;SDS011;2869;50.432;8.680;2022-09-27T03:52:51;2.10;;;2.00;;
5688;SDS011;2869;50.432;8.680;2022-09-27T03:55:19;2.33;;;2.13;;
5688;SDS011;2869;50.432;8.680;2022-09-27T03:57:46;4.20;;;2.40;;
5688;SDS011;2869;50.432;8.680;2022-09-27T04:00:13;2.40;;;2.30;;
5688;SDS011;2869;50.432;8.680;2022-09-27T04:02:41;4.40;;;2.30;;
5688;SDS011;2869;50.432;8.680;2022-09-27T04:05:08;4.23;;;2.50;;
5688;SDS011;2869;50.432;8.680;2022-09-27T04:07:35;6.67;;;2.50;;
5688;SDS011;2869;50.432;8.680;2022-09-27T04:10:03;2.20;;;2.10;;
5688;SDS011;2869;50.432;8.680;2022-09-27T04:12:32;2.20;;;2.00;;
5688;SDS011;2869;50.432;8.680;2022-09-27T04:14:59;2.40;;;2.23;;
5688;SDS011;2869;50.432;8.680;2022-09-27T04:17:26;2.47;;;2.27;;
5688;SDS011;2869;50.432;8.680;2022-09-27T04:19:52;2.80;;;2.30;;
5688;SDS011;2869;50.432;8.680;2022-09-27T04:22:19;2.33;;;2.23;;
5688;SDS011;2869;50.432;8.680;2022-09-27T04:24:46;2.43;;;2.10;;
5688;SDS011;2869;50.432;8.680;2022-09-27T04:27:12;6.37;;;2.30;;
5688;SDS011;2869;50.432;8.680;2022-09-27T04:29:41;2.37;;;2.10;;
5688;SDS011;2869;50.432;8.680;2022-09-27T04:32:09;2.50;;;2.33;;
5688;SDS011;2869;50.432;8.680;2022-09-27T04:34:36;2.80;;;2.60;;
5688;SDS011;2869;50.432;8.680;2022-09-27T04:37:20;3.50;;;2.50;;
5688;SDS011;2869;50.432;8.680;2022-09-27T04:39:48;2.50;;;2.40;;
5688;SDS011;2869;50.432;8.680;2022-09-27T04:42:14;2.37;;;2.27;;
5688;SDS011;2869;50.432;8.680;2022-09-27T04:44:43;3.33;;;2.47;;
5688;SDS011;2869;50.432;8.680;2022-09-27T04:47:09;2.70;;;2.50;;
5688;SDS011;2869;50.432;8.680;2022-09-27T04:49:36;2.90;;;2.70;;
5688;SDS011;2869;50.432;8.680;2022-09-27T04:52:03;2.20;;;1.97;;
5688;SDS011;2869;50.432;8.680;2022-09-27T04:54:30;2.40;;;2.30;;
5688;SDS011;2869;50.432;8.680;2022-09-27T04:56:57;2.70;;;2.43;;
5688;SDS011;2869;50.432;8.680;2022-09-27T04:59:24;2.70;;;2.03;;
5688;SDS011;2869;50.432;8.680;2022-09-27T05:01:53;2.13;;;1.90;;
5688;SDS011;2869;50.432;8.680;2022-09-27T05:04:19;2.53;;;2.33;;
5688;SDS011;2869;50.432;8.680;2022-09-27T05:06:47;3.00;;;2.47;;
5688;SDS011;2869;50.432;8.680;2022-09-27T05:09:14;2.43;;;2.30;;
5688;SDS011;2869;50.432;8.680;2022-09-27T05:11:40;3.40;;;2.63;;
5688;SDS011;2869;50.432;8.680;2022-09-27T05:14:07;4.67;;;2.73;;
5688;SDS011;2869;50.432;8.680;2022-09-27T05:16:34;2.90;;;2.70;;
5688;SDS011;2869;50.432;8.680;2022-09-27T05:19:02;4.07;;;3.17;;
5688;SDS011;2869;50.432;8.680;2022-09-27T05:21:29;2.80;;;2.30;;
5688;SDS011;2869;50.432;8.680;2022-09-27T05:23:56;2.63;;;2.43;;
5688;SDS011;2869;50.432;8.680;2022-09-27T05:26:25;2.90;;;2.60;;
5688;SDS011;2869;50.432;8.680;2022-09-27T05:28:51;3.00;;;2.77;;
5688;SDS011;2869;50.432;8.680;2022-09-27T05:31:18;2.40;;;2.30;;
5688;SDS011;2869;50.432;8.680;2022-09-27T05:33:45;2.90;;;2.70;;
5688;SDS011;2869;50.432;8.680;2022-09-27T05:36:13;4.50;;;2.63;;
5688;SDS011;2869;50.432;8.680;2022-09-27T05:38:40;3.03;;;2.80;;
5688;SDS011;2869;50.432;8.680;2022-09-27T05:41:07;7.63;;;3.03;;
5688;SDS011;2869;50.432;8.680;2022-09-27T05:43:34;5.63;;;2.60;;
5688;SDS011;2869;50.432;8.680;2022-09-27T05:46:01;3.03;;;2.80;;
5688;SDS011;2869;50.432;8.680;2022-09-27T05:48:29;3.17;;;2.80;;
5688;SDS011;2869;50.432;8.680;2022-09-27T05:50:56;3.60;;;3.30;;
5688;SDS011;2869;50.432;8.680;2022-09-27T05:53:24;3.63;;;2.60;;
5688;SDS011;2869;50.432;8.680;2022-09-27T05:55:51;6.80;;;2.53;;
5688;SDS011;2869;50.432;8.680;2022-09-27T05:58:17;2.70;;;2.50;;
5688;SDS011;2869;50.432;8.680;2022-09-27T06:00:44;5.20;;;2.53;;
5688;SDS011;2869;50.432;8.680;2022-09-27T06:03:11;2.67;;;2.47;;
5688;SDS011;2869;50.432;8.680;2022-09-27T06:05:39;2.20;;;2.10;;
5688;SDS011;2869;50.432;8.680;2022-09-27T06:08:07;3.07;;;2.83;;
5688;SDS011;2869;50.432;8.680;2022-09-27T06:10:36;3.00;;;2.80;;
5688;SDS011;2869;50.432;8.680;2022-09-27T06:13:05;7.57;;;2.50;;
5688;SDS011;2869;50.432;8.680;2022-09-27T06:15:33;3.03;;;2.73;;
5688;SDS011;2869;50.432;8.680;2022-09-27T06:18:02;3.20;;;2.90;;
5688;SDS011;2869;50.432;8.680;2022-09-27T06:20:30;2.90;;;2.27;;
5688;SDS011;2869;50.432;8.680;2022-09-27T06:23:02;6.20;;;2.30;;
5688;SDS011;2869;50.432;8.680;2022-09-27T06:25:31;7.23;;;3.00;;
5688;SDS011;2869;50.432;8.680;2022-09-27T06:27:59;2.57;;;2.40;;
5688;SDS011;2869;50.432;8.680;2022-09-27T06:30:26;3.07;;;2.87;;
5688;SDS011;2869;50.432;8.680;2022-09-27T06:32:56;5.73;;;2.67;;
5688;SDS011;2869;50.432;8.680;2022-09-27T06:35:23;2.80;;;2.60;;
5688;SDS011;2869;50.432;8.680;2022-09-27T06:37:50;3.50;;;3.20;;
5688;SDS011;2869;50.432;8.680;2022-09-27T06:40:17;3.23;;;3.03;;
5688;SDS011;2869;50.432;8.680;2022-09-27T06:42:44;3.00;;;2.80;;
5688;SDS011;2869;50.432;8.680;2022-09-27T06:45:12;3.50;;;3.10;;
5688;SDS011;2869;50.432;8.680;2022-09-27T06:47:39;4.20;;;3.47;;
5688;SDS011;2869;50.432;8.680;2022-09-27T06:50:06;3.87;;;3.47;;
5688;SDS011;2869;50.432;8.680;2022-09-27T06:52:34;12.50;;;4.07;;
5688;SDS011;2869;50.432;8.680;2022-09-27T06:55:02;4.57;;;4.00;;
5688;SDS011;2869;50.432;8.680;2022-09-27T06:57:29;7.83;;;3.67;;
5688;SDS011;2869;50.432;8.680;2022-09-27T07:00:15;3.50;;;3.20;;
5688;SDS011;2869;50.432;8.680;2022-09-27T07:02:51;3.87;;;3.57;;
5688;SDS011;2869;50.432;8.680;2022-09-27T07:05:25;5.53;;;4.27;;
5688;SDS011;2869;50.432;8.680;2022-09-27T07:07:53;3.93;;;3.20;;
5688;SDS011;2869;50.432;8.680;2022-09-27T07:10:22;4.03;;;3.17;;
5688;SDS011;2869;50.432;8.680;2022-09-27T07:12:49;5.67;;;4.20;;
5688;SDS011;2869;50.432;8.680;2022-09-27T07:15:18;8.80;;;5.20;;
5688;SDS011;2869;50.432;8.680;2022-09-27T07:17:46;9.03;;;3.77;;
5688;SDS011;2869;50.432;8.680;2022-09-27T07:20:13;6.73;;;3.60;;
5688;SDS011;2869;50.432;8.680;2022-09-27T07:22:40;4.23;;;3.40;;
5688;SDS011;2869;50.432;8.680;2022-09-27T07:25:09;3.40;;;3.10;;
5688;SDS011;2869;50.432;8.680;2022-09-27T07:27:36;4.50;;;3.70;;
5688;SDS011;2869;50.432;8.680;2022-09-27T07:30:05;13.70;;;3.67;;
5688;SDS011;2869;50.432;8.680;2022-09-27T07:32:34;8.10;;;3.30;;
5688;SDS011;2869;50.432;8.680;2022-09-27T07:35:02;8.00;;;4.37;;
5688;SDS011;2869;50.432;8.680;2022-09-27T07:37:30;7.00;;;4.83;;
5688;SDS011;2869;50.432;8.680;2022-09-27T07:39:57;4.23;;;3.10;;
5688;SDS011;2869;50.432;8.680;2022-09-27T07:42:24;3.63;;;3.30;;
5688;SDS011;2869;50.432;8.680;2022-09-27T07:44:52;4.57;;;2.60;;
5688;SDS011;2869;50.432;8.680;2022-09-27T07:47:19;4.03;;;2.93;;
5688;SDS011;2869;50.432;8.680;2022-09-27T07:49:49;4.70;;;2.83;;
5688;SDS011;2869;50.432;8.680;2022-09-27T07:52:16;3.50;;;2.60;;
5688;SDS011;2869;50.432;8.680;2022-09-27T07:54:43;6.07;;;2.97;;
5688;SDS011;2869;50.432;8.680;2022-09-27T07:57:10;3.67;;;2.57;;
5688;SDS011;2869;50.432;8.680;2022-09-27T07:59:37;2.83;;;2.53;;
5688;SDS011;2869;50.432;8.680;2022-09-27T08:02:04;5.10;;;2.73;;
5688;SDS011;2869;50.432;8.680;2022-09-27T08:04:31;3.77;;;2.50;;
5688;SDS011;2869;50.432;8.680;2022-09-27T08:06:59;2.80;;;2.47;;
5688;SDS011;2869;50.432;8.680;2022-09-27T08:09:26;5.97;;;2.70;;
5688;SDS011;2869;50.432;8.680;2022-09-27T08:11:54;3.23;;;2.60;;
5688;SDS011;2869;50.432;8.680;2022-09-27T08:14:22;3.20;;;2.17;;
5688;SDS011;2869;50.432;8.680;2022-09-27T08:16:49;4.83;;;2.43;;
5688;SDS011;2869;50.432;8.680;2022-09-27T08:19:16;3.47;;;2.33;;
5688;SDS011;2869;50.432;8.680;2022-09-27T08:21:43;5.70;;;2.57;;
5688;SDS011;2869;50.432;8.680;2022-09-27T08:24:11;6.87;;;2.63;;
5688;SDS011;2869;50.432;8.680;2022-09-27T08:26:38;2.43;;;2.20;;
5688;SDS011;2869;50.432;8.680;2022-09-27T08:29:05;5.53;;;2.30;;
5688;SDS011;2869;50.432;8.680;2022-09-27T08:31:32;12.93;;;2.90;;
5688;SDS011;2869;50.432;8.680;2022-09-27T08:33:58;4.33;;;2.47;;
5688;SDS011;2869;50.432;8.680;2022-09-27T08:36:25;3.30;;;2.50;;
5688;SDS011;2869;50.432;8.680;2022-09-27T08:38:52;5.10;;;2.20;;
5688;SDS011;2869;50.432;8.680;2022-09-27T08:41:25;5.60;;;2.13;;
5688;SDS011;2869;50.432;8.680;2022-09-27T08:44:08;6.03;;;2.20;;
5688;SDS011;2869;50.432;8.680;2022-09-27T08:46:42;2.53;;;2.27;;
5688;SDS011;2869;50.432;8.680;2022-09-27T08:49:18;3.67;;;2.60;;
5688;SDS011;2869;50.432;8.680;2022-09-27T08:51:49;4.97;;;3.20;;
5688;SDS011;2869;50.432;8.680;2022-09-27T08:54:19;14.40;;;8.20;;
5688;SDS011;2869;50.432;8.680;2022-09-27T08:56:49;4.87;;;2.67;;
5688;SDS011;2869;50.432;8.680;2022-09-27T08:59:19;8.47;;;2.23;;
5688;SDS011;2869;50.432;8.680;2022-09-27T09:01:49;4.83;;;2.30;;
5688;SDS011;2869;50.432;8.680;2022-09-27T09:04:19;3.03;;;2.53;;
5688;SDS011;2869;50.432;8.680;2022-09-27T09:06:54;7.10;;;2.47;;
5688;SDS011;2869;50.432;8.680;2022-09-27T09:09:32;2.97;;;2.17;;
5688;SDS011;2869;50.432;8.680;2022-09-27T09:12:08;3.83;;;2.70;;
5688;SDS011;2869;50.432;8.680;2022-09-27T09:15:13;5.37;;;2.80;;
5688;SDS011;2869;50.432;8.680;2022-09-27T09:17:54;7.70;;;2.90;;
5688;SDS011;2869;50.432;8.680;2022-09-27T09:20:46;2.90;;;2.10;;
5688;SDS011;2869;50.432;8.680;2022-09-27T09:23:33;11.23;;;2.40;;
5688;SDS011;2869;50.432;8.680;2022-09-27T09:26:20;7.03;;;3.50;;
5688;SDS011;2869;50.432;8.680;2022-09-27T09:28:58;7.73;;;4.00;;
5688;SDS011;2869;50.432;8.680;2022-09-27T09:31:34;3.03;;;2.83;;
5688;SDS011;2869;50.432;8.680;2022-09-27T09:34:09;7.97;;;4.43;;
5688;SDS011;2869;50.432;8.680;2022-09-27T09:36:40;3.97;;;2.70;;
5688;SDS011;2869;50.432;8.680;2022-09-27T09:39:11;5.47;;;2.20;;
5688;SDS011;2869;50.432;8.680;2022-09-27T09:41:42;3.20;;;2.00;;
5688;SDS011;2869;50.432;8.680;2022-09-27T09:44:22;3.23;;;1.73;;
5688;SDS011;2869;50.432;8.680;2022-09-27T09:46:54;3.97;;;1.93;;
5688;SDS011;2869;50.432;8.680;2022-09-27T09:49:26;4.30;;;1.80;;
5688;SDS011;2869;50.432;8.680;2022-09-27T09:51:58;4.00;;;1.87;;
5688;SDS011;2869;50.432;8.680;2022-09-27T09:54:28;4.30;;;1.60;;
5688;SDS011;2869;50.432;8.680;2022-09-27T09:56:59;4.43;;;2.03;;
5688;SDS011;2869;50.432;8.680;2022-09-27T09:59:34;3.63;;;2.00;;
5688;SDS011;2869;50.432;8.680;2022-09-27T10:02:13;1.87;;;1.70;;
5688;SDS011;2869;50.432;8.680;2022-09-27T10:04:46;3.00;;;1.50;;
5688;SDS011;2869;50.432;8.680;2022-09-27T10:07:14;2.53;;;2.00;;
5688;SDS011;2869;50.432;8.680;2022-09-27T10:09:44;4.57;;;1.80;;
5688;SDS011;2869;50.432;8.680;2022-09-27T10:12:11;6.03;;;1.90;;
5688;SDS011;2869;50.432;8.680;2022-09-27T10:14:39;2.13;;;1.60;;
5688;SDS011;2869;50.432;8.680;2022-09-27T10:17:09;3.57;;;1.60;;
5688;SDS011;2869;50.432;8.680;2022-09-27T10:19:39;2.53;;;1.60;;
5688;SDS011;2869;50.432;8.680;2022-09-27T10:22:10;1.97;;;1.83;;
5688;SDS011;2869;50.432;8.680;2022-09-27T10:24:51;6.40;;;1.93;;
5688;SDS011;2869;50.432;8.680;2022-09-27T10:27:20;3.23;;;1.40;;
5688;SDS011;2869;50.432;8.680;2022-09-27T10:29:48;4.40;;;2.20;;
5688;SDS011;2869;50.432;8.680;2022-09-27T10:32:23;6.20;;;1.83;;
5688;SDS011;2869;50.432;8.680;2022-09-27T10:34:54;3.67;;;1.93;;
5688;SDS011;2869;50.432;8.680;2022-09-27T10:37:22;1.80;;;1.70;;
5688;SDS011;2869;50.432;8.680;2022-09-27T10:39:49;3.27;;;1.70;;
5688;SDS011;2869;50.432;8.680;2022-09-27T10:42:21;2.27;;;1.40;;
5688;SDS011;2869;50.432;8.680;2022-09-27T10:44:59;1.80;;;1.40;;
5688;SDS011;2869;50.432;8.680;2022-09-27T10:47:47;2.47;;;1.73;;
5688;SDS011;2869;50.432;8.680;2022-09-27T10:50:15;6.03;;;2.13;;
5688;SDS011;2869;50.432;8.680;2022-09-27T10:52:43;4.07;;;2.70;;
5688;SDS011;2869;50.432;8.680;2022-09-27T10:55:14;4.50;;;2.00;;
5688;SDS011;2869;50.432;8.680;2022-09-27T10:57:47;3.20;;;1.97;;
5688;SDS011;2869;50.432;8.680;2022-09-27T11:00:21;4.50;;;1.60;;
5688;SDS011;2869;50.432;8.680;2022-09-27T11:02:50;5.47;;;1.80;;
5688;SDS011;2869;50.432;8.680;2022-09-27T11:05:28;4.90;;;1.90;;
5688;SDS011;2869;50.432;8.680;2022-09-27T11:07:58;3.37;;;1.83;;
5688;SDS011;2869;50.432;8.680;2022-09-27T11:10:28;4.40;;;1.60;;
5688;SDS011;2869;50.432;8.680;2022-09-27T11:13:07;4.30;;;1.90;;
5688;SDS011;2869;50.432;8.680;2022-09-27T11:15:42;2.80;;;1.53;;
5688;SDS011;2869;50.432;8.680;2022-09-27T11:18:23;1.77;;;1.67;;
5688;SDS011;2869;50.432;8.680;2022-09-27T11:20:58;5.30;;;1.90;;
5688;SDS011;2869;50.432;8.680;2022-09-27T11:23:38;5.13;;;1.60;;
5688;SDS011;2869;50.432;8.680;2022-09-27T11:26:27;5.00;;;1.90;;
5688;SDS011;2869;50.432;8.680;2022-09-27T11:29:04;3.63;;;1.67;;
5688;SDS011;2869;50.432;8.680;2022-09-27T11:31:47;2.10;;;1.67;;
5688;SDS011;2869;50.432;8.680;2022-09-27T11:34:33;4.90;;;1.40;;
5688;SDS011;2869;50.432;8.680;2022-09-27T11:37:19;3.07;;;2.30;;
5688;SDS011;2869;50.432;8.680;2022-09-27T11:40:01;2.30;;;1.40;;
5688;SDS011;2869;50.432;8.680;2022-09-27T11:45:44;1.50;;;1.40;;
5688;SDS011;2869;50.432;8.680;2022-09-27T11:48:25;1.30;;;1.20;;
5688;SDS011;2869;50.432;8.680;2022-09-27T11:51:07;1.40;;;1.30;;
5688;SDS011;2869;50.432;8.680;2022-09-27T11:53:57;1.70;;;1.30;;
5688;SDS011;2869;50.432;8.680;2022-09-27T11:56:39;1.30;;;1.20;;
5688;SDS011;2869;50.432;8.680;2022-09-27T12:02:06;1.40;;;1.30;;
5688;SDS011;2869;50.432;8.680;2022-09-27T12:04:54;1.97;;;1.60;;
5688;SDS011;2869;50.432;8.680;2022-09-27T12:07:30;1.40;;;1.30;;
5688;SDS011;2869;50.432;8.680;2022-09-27T12:10:03;1.97;;;1.37;;
5688;SDS011;2869;50.432;8.680;2022-09-27T12:12:34;1.43;;;1.23;;
5688;SDS011;2869;50.432;8.680;2022-09-27T12:15:05;1.30;;;1.20;;
5688;SDS011;2869;50.432;8.680;2022-09-27T12:17:40;1.53;;;1.23;;
5688;SDS011;2869;50.432;8.680;2022-09-27T12:20:13;1.77;;;1.37;;
5688;SDS011;2869;50.432;8.680;2022-09-27T12:22:48;4.07;;;2.33;;
5688;SDS011;2869;50.432;8.680;2022-09-27T12:25:19;1.70;;;1.60;;
5688;SDS011;2869;50.432;8.680;2022-09-27T12:27:48;9.17;;;1.77;;
5688;SDS011;2869;50.432;8.680;2022-09-27T12:30:18;1.30;;;1.20;;
5688;SDS011;2869;50.432;8.680;2022-09-27T12:32:47;1.43;;;1.30;;
5688;SDS011;2869;50.432;8.680;2022-09-27T12:35:20;2.80;;;1.40;;
5688;SDS011;2869;50.432;8.680;2022-09-27T12:37:50;1.50;;;1.40;;
5688;SDS011;2869;50.432;8.680;2022-09-27T12:40:24;3.07;;;1.20;;
5688;SDS011;2869;50.432;8.680;2022-09-27T12:42:54;2.00;;;1.30;;
5688;SDS011;2869;50.432;8.680;2022-09-27T12:45:27;1.37;;;1.27;;
5688;SDS011;2869;50.432;8.680;2022-09-27T12:48:04;1.30;;;1.20;;
5688;SDS011;2869;50.432;8.680;2022-09-27T12:50:39;2.90;;;1.60;;
5688;SDS011;2869;50.432;8.680;2022-09-27T12:53:11;2.60;;;1.43;;
5688;SDS011;2869;50.432;8.680;2022-09-27T12:55:49;1.20;;;1.10;;
5688;SDS011;2869;50.432;8.680;2022-09-27T12:58:43;3.20;;;1.40;;
5688;SDS011;2869;50.432;8.680;2022-09-27T13:01:24;1.43;;;1.33;;
5688;SDS011;2869;50.432;8.680;2022-09-27T13:04:05;1.87;;;1.40;;
5688;SDS011;2869;50.432;8.680;2022-09-27T13:07:06;2.93;;;1.77;;
5688;SDS011;2869;50.432;8.680;2022-09-27T13:09:45;2.50;;;1.70;;
5688;SDS011;2869;50.432;8.680;2022-09-27T13:12:27;1.40;;;1.30;;
5688;SDS011;2869;50.432;8.680;2022-09-27T13:14:59;3.40;;;1.50;;
5688;SDS011;2869;50.432;8.680;2022-09-27T13:17:31;1.90;;;1.80;;
5688;SDS011;2869;50.432;8.680;2022-09-27T13:23:15;1.60;;;1.50;;
5688;SDS011;2869;50.432;8.680;2022-09-27T13:26:20;2.00;;;1.40;;
5688;SDS011;2869;50.432;8.680;2022-09-27T13:28:57;2.97;;;1.53;;
5688;SDS011;2869;50.432;8.680;2022-09-27T13:34:36;1.80;;;1.70;;
5688;SDS011;2869;50.432;8.680;2022-09-27T13:45:57;1.87;;;1.60;;
5688;SDS011;2869;50.432;8.680;2022-09-27T13:48:29;1.57;;;1.47;;
5688;SDS011;2869;50.432;8.680;2022-09-27T13:51:04;1.60;;;1.50;;
5688;SDS011;2869;50.432;8.680;2022-09-27T13:53:41;1.40;;;1.13;;
5688;SDS011;2869;50.432;8.680;2022-09-27T13:56:45;2.27;;;1.70;;
5688;SDS011;2869;50.432;8.680;2022-09-27T13:59:19;2.70;;;1.40;;
5688;SDS011;2869;50.432;8.680;2022-09-27T14:01:50;3.00;;;1.40;;
5688;SDS011;2869;50.432;8.680;2022-09-27T14:04:21;1.87;;;1.50;;
5688;SDS011;2869;50.432;8.680;2022-09-27T14:06:51;1.20;;;1.10;;
5688;SDS011;2869;50.432;8.680;2022-09-27T14:09:24;1.43;;;1.30;;
5688;SDS011;2869;50.432;8.680;2022-09-27T14:11:54;1.30;;;1.20;;
5688;SDS011;2869;50.432;8.680;2022-09-27T14:14:24;1.60;;;1.27;;
5688;SDS011;2869;50.432;8.680;2022-09-27T14:16:53;1.97;;;1.33;;
5688;SDS011;2869;50.432;8.680;2022-09-27T14:19:21;1.97;;;1.30;;
5688;SDS011;2869;50.432;8.680;2022-09-27T14:21:50;1.40;;;1.20;;
5688;SDS011;2869;50.432;8.680;2022-09-27T14:24:21;3.60;;;1.50;;
5688;SDS011;2869;50.432;8.680;2022-09-27T14:27:01;1.40;;;1.30;;
5688;SDS011;2869;50.432;8.680;2022-09-27T14:29:38;3.90;;;1.50;;
5688;SDS011;2869;50.432;8.680;2022-09-27T14:32:08;2.13;;;1.23;;
5688;SDS011;2869;50.432;8.680;2022-09-27T14:34:37;3.43;;;1.50;;
5688;SDS011;2869;50.432;8.680;2022-09-27T14:37:04;2.40;;;1.60;;
5688;SDS011;2869;50.432;8.680;2022-09-27T14:39:52;1.90;;;1.80;;
5688;SDS011;2869;50.432;8.680;2022-09-27T14:42:22;2.27;;;1.50;;
5688;SDS011;2869;50.432;8.680;2022-09-27T14:44:50;1.60;;;1.50;;
5688;SDS011;2869;50.432;8.680;2022-09-27T14:47:19;1.70;;;1.60;;
5688;SDS011;2869;50.432;8.680;2022-09-27T14:49:47;1.90;;;1.33;;
5688;SDS011;2869;50.432;8.680;2022-09-27T14:52:16;1.70;;;1.60;;
5688;SDS011;2869;50.432;8.680;2022-09-27T14:54:54;2.00;;;1.90;;
5688;SDS011;2869;50.432;8.680;2022-09-27T14:57:23;2.60;;;2.37;;
5688;SDS011;2869;50.432;8.680;2022-09-27T14:59:51;2.13;;;1.83;;
5688;SDS011;2869;50.432;8.680;2022-09-27T15:02:18;2.00;;;1.80;;
5688;SDS011;2869;50.432;8.680;2022-09-27T15:04:49;2.73;;;1.70;;
5688;SDS011;2869;50.432;8.680;2022-09-27T15:07:17;1.80;;;1.70;;
5688;SDS011;2869;50.432;8.680;2022-09-27T15:09:46;1.90;;;1.70;;
5688;SDS011;2869;50.432;8.680;2022-09-27T15:12:17;2.27;;;1.67;;
5688;SDS011;2869;50.432;8.680;2022-09-27T15:14:51;2.33;;;1.50;;
5688;SDS011;2869;50.432;8.680;2022-09-27T15:17:20;1.77;;;1.67;;
5688;SDS011;2869;50.432;8.680;2022-09-27T15:19:59;1.50;;;1.40;;
5688;SDS011;2869;50.432;8.680;2022-09-27T15:22:30;1.90;;;1.80;;
5688;SDS011;2869;50.432;8.680;2022-09-27T15:25:04;2.07;;;1.87;;
5688;SDS011;2869;50.432;8.680;2022-09-27T15:27:44;2.20;;;2.00;;
5688;SDS011;2869;50.432;8.680;2022-09-27T15:30:18;1.90;;;1.80;;
5688;SDS011;2869;50.432;8.680;2022-09-27T15:32:49;2.50;;;1.93;;
5688;SDS011;2869;50.432;8.680;2022-09-27T15:35:20;3.00;;;2.80;;
5688;SDS011;2869;50.432;8.680;2022-09-27T15:37:54;2.13;;;1.97;;
5688;SDS011;2869;50.432;8.680;2022-09-27T15:43:36;3.03;;;2.13;;
5688;SDS011;2869;50.432;8.680;2022-09-27T15:46:26;2.63;;;2.33;;
5688;SDS011;2869;50.432;8.680;2022-09-27T15:49:16;9.70;;;1.97;;
5688;SDS011;2869;50.432;8.680;2022-09-27T15:51:46;3.80;;;2.10;;
5688;SDS011;2869;50.432;8.680;2022-09-27T15:54:16;3.30;;;2.10;;
5688;SDS011;2869;50.432;8.680;2022-09-27T15:56:43;2.07;;;1.87;;
5688;SDS011;2869;50.432;8.680;2022-09-27T15:59:11;1.80;;;1.60;;
5688;SDS011;2869;50.432;8.680;2022-09-27T16:01:42;1.97;;;1.77;;
5688;SDS011;2869;50.432;8.680;2022-09-27T16:04:09;4.80;;;1.90;;
5688;SDS011;2869;50.432;8.680;2022-09-27T16:06:36;3.20;;;1.90;;